sensor_id;sensor_type;location;lat;lon;timestamp;P1;durP1;ratioP1;P2;durP2;ratioP2
48941;SDS011;35340;52.378;4.648;2022-11-12T00:05:52;8.95;;;5.13;;
48941;SDS011;35340;52.378;4.648;2022-11-12T00:08:21;6.95;;;4.38;;
48941;SDS011;35340;52.378;4.648;2022-11-12T00:10:49;8.82;;;4.93;;
48941;SDS011;35340;52.378;4.648;2022-11-12T00:13:17;7.00;;;4.65;;
48941;SDS011;35340;52.378;4.648;2022-11-12T00:15:45;7.38;;;4.93;;
48941;SDS011;35340;52.378;4.648;2022-11-12T00:18:17;6.47;;;4.60;;
48941;SDS011;35340;52.378;4.648;2022-11-12T00:20:50;8.60;;;4.80;;
48941;SDS011;35340;52.378;4.648;2022-11-12T00:23:17;7.07;;;4.15;;
48941;SDS011;35340;52.378;4.648;2022-11-12T00:25:57;6.47;;;4.40;;
48941;SDS011;35340;52.378;4.648;2022-11-12T00:28:24;5.75;;;4.45;;
48941;SDS011;35340;52.378;4.648;2022-11-12T00:30:50;6.72;;;4.55;;
48941;SDS011;35340;52.378;4.648;2022-11-12T00:33:22;6.70;;;4.20;;
48941;SDS011;35340;52.378;4.648;2022-11-12T00:38:16;6.13;;;4.38;;
48941;SDS011;35340;52.378;4.648;2022-11-12T00:41:02;5.90;;;3.90;;
48941;SDS011;35340;52.378;4.648;2022-11-12T00:43:27;6.13;;;3.72;;
48941;SDS011;35340;52.378;4.648;2022-11-12T00:45:53;7.75;;;3.92;;
48941;SDS011;35340;52.378;4.648;2022-11-12T00:48:18;5.80;;;4.20;;
48941;SDS011;35340;52.378;4.648;2022-11-12T00:50:44;5.70;;;3.95;;
48941;SDS011;35340;52.378;4.648;2022-11-12T00:53:11;5.07;;;3.85;;
48941;SDS011;35340;52.378;4.648;2022-11-12T00:55:38;5.95;;;3.97;;
48941;SDS011;35340;52.378;4.648;2022-11-12T00:58:03;5.15;;;3.85;;
48941;SDS011;35340;52.378;4.648;2022-11-12T01:00:35;6.35;;;3.90;;
48941;SDS011;35340;52.378;4.648;2022-11-12T01:03:19;5.65;;;3.70;;
48941;SDS011;35340;52.378;4.648;2022-11-12T01:05:45;6.10;;;3.95;;
48941;SDS011;35340;52.378;4.648;2022-11-12T01:08:10;6.15;;;3.90;;
48941;SDS011;35340;52.378;4.648;2022-11-12T01:10:36;5.40;;;3.95;;
48941;SDS011;35340;52.378;4.648;2022-11-12T01:13:02;5.90;;;3.63;;
48941;SDS011;35340;52.378;4.648;2022-11-12T01:15:27;5.30;;;3.70;;
48941;SDS011;35340;52.378;4.648;2022-11-12T01:17:53;5.90;;;3.53;;
48941;SDS011;35340;52.378;4.648;2022-11-12T01:20:21;4.70;;;3.42;;
48941;SDS011;35340;52.378;4.648;2022-11-12T01:22:46;5.20;;;3.72;;
48941;SDS011;35340;52.378;4.648;2022-11-12T01:25:12;5.03;;;3.80;;
48941;SDS011;35340;52.378;4.648;2022-11-12T01:27:37;4.38;;;3.35;;
48941;SDS011;35340;52.378;4.648;2022-11-12T01:30:04;4.43;;;3.30;;
48941;SDS011;35340;52.378;4.648;2022-11-12T01:32:33;4.90;;;3.30;;
48941;SDS011;35340;52.378;4.648;2022-11-12T01:35:00;5.20;;;3.58;;
48941;SDS011;35340;52.378;4.648;2022-11-12T01:40:49;4.60;;;3.38;;
48941;SDS011;35340;52.378;4.648;2022-11-12T01:43:17;5.32;;;3.88;;
48941;SDS011;35340;52.378;4.648;2022-11-12T01:45:45;5.30;;;3.60;;
48941;SDS011;35340;52.378;4.648;2022-11-12T01:51:22;4.90;;;3.28;;
48941;SDS011;35340;52.378;4.648;2022-11-12T01:53:52;4.15;;;3.55;;
48941;SDS011;35340;52.378;4.648;2022-11-12T01:56:23;5.20;;;3.92;;
48941;SDS011;35340;52.378;4.648;2022-11-12T02:01:53;4.78;;;3.67;;
48941;SDS011;35340;52.378;4.648;2022-11-12T02:04:33;5.25;;;3.60;;
48941;SDS011;35340;52.378;4.648;2022-11-12T02:07:05;7.38;;;3.63;;
48941;SDS011;35340;52.378;4.648;2022-11-12T02:09:55;5.07;;;3.50;;
48941;SDS011;35340;52.378;4.648;2022-11-12T02:12:27;4.75;;;3.53;;
48941;SDS011;35340;52.378;4.648;2022-11-12T02:15:11;4.22;;;3.40;;
48941;SDS011;35340;52.378;4.648;2022-11-12T02:17:37;4.90;;;3.60;;
48941;SDS011;35340;52.378;4.648;2022-11-12T02:20:07;5.28;;;3.30;;
48941;SDS011;35340;52.378;4.648;2022-11-12T02:22:33;4.60;;;3.63;;
48941;SDS011;35340;52.378;4.648;2022-11-12T02:25:00;4.88;;;3.47;;
48941;SDS011;35340;52.378;4.648;2022-11-12T02:27:27;5.25;;;3.92;;
48941;SDS011;35340;52.378;4.648;2022-11-12T02:29:52;4.65;;;3.60;;
48941;SDS011;35340;52.378;4.648;2022-11-12T02:32:26;3.45;;;3.15;;
48941;SDS011;35340;52.378;4.648;2022-11-12T02:34:58;4.50;;;3.90;;
48941;SDS011;35340;52.378;4.648;2022-11-12T02:37:23;4.85;;;3.53;;
48941;SDS011;35340;52.378;4.648;2022-11-12T02:39:48;5.95;;;3.95;;
48941;SDS011;35340;52.378;4.648;2022-11-12T02:42:14;4.57;;;3.67;;
48941;SDS011;35340;52.378;4.648;2022-11-12T02:48:08;3.90;;;3.47;;
48941;SDS011;35340;52.378;4.648;2022-11-12T02:54:00;5.30;;;4.18;;
48941;SDS011;35340;52.378;4.648;2022-11-12T02:56:29;5.32;;;3.70;;
48941;SDS011;35340;52.378;4.648;2022-11-12T02:58:55;5.00;;;4.10;;
48941;SDS011;35340;52.378;4.648;2022-11-12T03:01:27;4.50;;;3.90;;
48941;SDS011;35340;52.378;4.648;2022-11-12T03:03:52;6.30;;;3.78;;
48941;SDS011;35340;52.378;4.648;2022-11-12T03:06:19;4.60;;;3.60;;
48941;SDS011;35340;52.378;4.648;2022-11-12T03:08:45;4.65;;;3.92;;
48941;SDS011;35340;52.378;4.648;2022-11-12T03:11:17;5.13;;;3.78;;
48941;SDS011;35340;52.378;4.648;2022-11-12T03:13:43;4.63;;;4.07;;
48941;SDS011;35340;52.378;4.648;2022-11-12T03:16:09;4.38;;;3.50;;
48941;SDS011;35340;52.378;4.648;2022-11-12T03:18:35;4.43;;;3.45;;
48941;SDS011;35340;52.378;4.648;2022-11-12T03:21:02;4.28;;;3.35;;
48941;SDS011;35340;52.378;4.648;2022-11-12T03:23:28;5.40;;;3.60;;
48941;SDS011;35340;52.378;4.648;2022-11-12T03:25:53;4.32;;;3.80;;
48941;SDS011;35340;52.378;4.648;2022-11-12T03:28:20;4.78;;;3.90;;
48941;SDS011;35340;52.378;4.648;2022-11-12T03:30:46;4.55;;;3.80;;
48941;SDS011;35340;52.378;4.648;2022-11-12T03:33:13;4.30;;;3.40;;
48941;SDS011;35340;52.378;4.648;2022-11-12T03:35:39;4.93;;;3.97;;
48941;SDS011;35340;52.378;4.648;2022-11-12T03:38:26;5.05;;;4.18;;
48941;SDS011;35340;52.378;4.648;2022-11-12T03:40:58;4.82;;;3.95;;
48941;SDS011;35340;52.378;4.648;2022-11-12T03:43:25;5.00;;;4.10;;
48941;SDS011;35340;52.378;4.648;2022-11-12T03:45:58;5.90;;;4.00;;
48941;SDS011;35340;52.378;4.648;2022-11-12T03:48:27;4.40;;;3.72;;
48941;SDS011;35340;52.378;4.648;2022-11-12T03:50:57;5.57;;;4.43;;
48941;SDS011;35340;52.378;4.648;2022-11-12T03:53:23;4.45;;;3.92;;
48941;SDS011;35340;52.378;4.648;2022-11-12T03:55:49;6.63;;;4.10;;
48941;SDS011;35340;52.378;4.648;2022-11-12T03:58:16;4.63;;;3.90;;
48941;SDS011;35340;52.378;4.648;2022-11-12T04:00:42;4.18;;;3.65;;
48941;SDS011;35340;52.378;4.648;2022-11-12T04:03:17;4.35;;;3.95;;
48941;SDS011;35340;52.378;4.648;2022-11-12T04:05:42;4.10;;;3.70;;
48941;SDS011;35340;52.378;4.648;2022-11-12T04:11:41;4.75;;;4.25;;
48941;SDS011;35340;52.378;4.648;2022-11-12T04:14:12;5.18;;;4.63;;
48941;SDS011;35340;52.378;4.648;2022-11-12T04:20:02;5.20;;;4.50;;
48941;SDS011;35340;52.378;4.648;2022-11-12T04:22:53;5.28;;;4.18;;
48941;SDS011;35340;52.378;4.648;2022-11-12T04:25:22;4.40;;;4.00;;
48941;SDS011;35340;52.378;4.648;2022-11-12T04:28:08;4.65;;;3.80;;
48941;SDS011;35340;52.378;4.648;2022-11-12T04:30:41;4.45;;;4.05;;
48941;SDS011;35340;52.378;4.648;2022-11-12T04:33:28;3.83;;;3.40;;
48941;SDS011;35340;52.378;4.648;2022-11-12T04:39:41;4.72;;;4.22;;
48941;SDS011;35340;52.378;4.648;2022-11-12T04:45:31;4.72;;;4.22;;
48941;SDS011;35340;52.378;4.648;2022-11-12T04:48:05;4.75;;;4.28;;
48941;SDS011;35340;52.378;4.648;2022-11-12T04:50:38;5.45;;;4.18;;
48941;SDS011;35340;52.378;4.648;2022-11-12T04:53:07;5.28;;;4.78;;
48941;SDS011;35340;52.378;4.648;2022-11-12T04:55:35;4.38;;;3.88;;
48941;SDS011;35340;52.378;4.648;2022-11-12T04:58:02;5.90;;;5.03;;
48941;SDS011;35340;52.378;4.648;2022-11-12T05:00:27;5.22;;;4.65;;
48941;SDS011;35340;52.378;4.648;2022-11-12T05:02:53;4.88;;;4.38;;
48941;SDS011;35340;52.378;4.648;2022-11-12T05:05:18;5.00;;;4.50;;
48941;SDS011;35340;52.378;4.648;2022-11-12T05:07:44;5.30;;;4.80;;
48941;SDS011;35340;52.378;4.648;2022-11-12T05:10:10;5.18;;;4.68;;
48941;SDS011;35340;52.378;4.648;2022-11-12T05:12:48;5.65;;;4.97;;
48941;SDS011;35340;52.378;4.648;2022-11-12T05:15:37;4.97;;;4.47;;
48941;SDS011;35340;52.378;4.648;2022-11-12T05:18:07;5.40;;;4.90;;
48941;SDS011;35340;52.378;4.648;2022-11-12T05:20:40;6.10;;;5.28;;
48941;SDS011;35340;52.378;4.648;2022-11-12T05:23:05;5.22;;;4.72;;
48941;SDS011;35340;52.378;4.648;2022-11-12T05:25:31;5.63;;;5.10;;
48941;SDS011;35340;52.378;4.648;2022-11-12T05:27:56;5.97;;;5.38;;
48941;SDS011;35340;52.378;4.648;2022-11-12T05:30:28;6.10;;;5.50;;
48941;SDS011;35340;52.378;4.648;2022-11-12T05:36:17;5.93;;;5.32;;
48941;SDS011;35340;52.378;4.648;2022-11-12T05:42:08;6.32;;;5.72;;
48941;SDS011;35340;52.378;4.648;2022-11-12T05:44:48;6.40;;;5.65;;
48941;SDS011;35340;52.378;4.648;2022-11-12T05:50:38;6.20;;;5.60;;
48941;SDS011;35340;52.378;4.648;2022-11-12T05:56:30;6.35;;;5.75;;
48941;SDS011;35340;52.378;4.648;2022-11-12T05:59:02;6.32;;;5.72;;
48941;SDS011;35340;52.378;4.648;2022-11-12T06:01:31;6.03;;;5.43;;
48941;SDS011;35340;52.378;4.648;2022-11-12T06:04:18;6.72;;;6.13;;
48941;SDS011;35340;52.378;4.648;2022-11-12T06:10:13;6.45;;;5.85;;
48941;SDS011;35340;52.378;4.648;2022-11-12T06:12:59;6.72;;;6.03;;
48941;SDS011;35340;52.378;4.648;2022-11-12T06:15:31;7.05;;;5.70;;
48941;SDS011;35340;52.378;4.648;2022-11-12T06:17:57;6.35;;;5.75;;
48941;SDS011;35340;52.378;4.648;2022-11-12T06:20:26;6.35;;;5.70;;
48941;SDS011;35340;52.378;4.648;2022-11-12T06:22:52;6.93;;;6.25;;
48941;SDS011;35340;52.378;4.648;2022-11-12T06:25:18;6.35;;;5.75;;
48941;SDS011;35340;52.378;4.648;2022-11-12T06:27:44;6.88;;;6.15;;
48941;SDS011;35340;52.378;4.648;2022-11-12T06:30:10;6.07;;;5.43;;
48941;SDS011;35340;52.378;4.648;2022-11-12T06:32:35;6.55;;;5.85;;
48941;SDS011;35340;52.378;4.648;2022-11-12T06:35:01;6.15;;;5.55;;
48941;SDS011;35340;52.378;4.648;2022-11-12T06:37:26;6.75;;;5.85;;
48941;SDS011;35340;52.378;4.648;2022-11-12T06:39:52;6.30;;;5.70;;
48941;SDS011;35340;52.378;4.648;2022-11-12T06:42:17;6.82;;;5.80;;
48941;SDS011;35340;52.378;4.648;2022-11-12T06:44:48;7.45;;;6.07;;
48941;SDS011;35340;52.378;4.648;2022-11-12T06:47:20;8.05;;;6.10;;
48941;SDS011;35340;52.378;4.648;2022-11-12T06:49:46;6.93;;;6.15;;
48941;SDS011;35340;52.378;4.648;2022-11-12T06:52:11;6.65;;;6.00;;
48941;SDS011;35340;52.378;4.648;2022-11-12T06:54:37;7.32;;;6.35;;
48941;SDS011;35340;52.378;4.648;2022-11-12T06:57:02;7.07;;;6.15;;
48941;SDS011;35340;52.378;4.648;2022-11-12T06:59:27;7.25;;;6.45;;
48941;SDS011;35340;52.378;4.648;2022-11-12T07:01:53;8.77;;;6.70;;
48941;SDS011;35340;52.378;4.648;2022-11-12T07:04:18;6.97;;;6.10;;
48941;SDS011;35340;52.378;4.648;2022-11-12T07:06:45;7.15;;;6.43;;
48941;SDS011;35340;52.378;4.648;2022-11-12T07:09:10;7.22;;;6.07;;
48941;SDS011;35340;52.378;4.648;2022-11-12T07:11:36;9.10;;;6.60;;
48941;SDS011;35340;52.378;4.648;2022-11-12T07:14:04;7.30;;;6.55;;
48941;SDS011;35340;52.378;4.648;2022-11-12T07:16:30;8.27;;;7.00;;
48941;SDS011;35340;52.378;4.648;2022-11-12T07:18:56;7.28;;;6.57;;
48941;SDS011;35340;52.378;4.648;2022-11-12T07:21:21;7.00;;;6.30;;
48941;SDS011;35340;52.378;4.648;2022-11-12T07:23:46;7.32;;;6.55;;
48941;SDS011;35340;52.378;4.648;2022-11-12T07:26:13;8.95;;;6.97;;
48941;SDS011;35340;52.378;4.648;2022-11-12T07:28:43;7.88;;;6.90;;
48941;SDS011;35340;52.378;4.648;2022-11-12T07:31:12;7.72;;;6.50;;
48941;SDS011;35340;52.378;4.648;2022-11-12T07:33:38;8.05;;;6.93;;
48941;SDS011;35340;52.378;4.648;2022-11-12T07:36:09;7.63;;;6.82;;
48941;SDS011;35340;52.378;4.648;2022-11-12T07:38:39;8.38;;;6.45;;
48941;SDS011;35340;52.378;4.648;2022-11-12T07:41:11;7.45;;;6.47;;
48941;SDS011;35340;52.378;4.648;2022-11-12T07:43:39;7.18;;;6.38;;
48941;SDS011;35340;52.378;4.648;2022-11-12T07:46:09;9.38;;;7.00;;
48941;SDS011;35340;52.378;4.648;2022-11-12T07:48:48;8.60;;;7.32;;
48941;SDS011;35340;52.378;4.648;2022-11-12T07:51:22;9.80;;;7.25;;
48941;SDS011;35340;52.378;4.648;2022-11-12T07:53:55;8.18;;;6.63;;
48941;SDS011;35340;52.378;4.648;2022-11-12T07:56:24;8.02;;;7.18;;
48941;SDS011;35340;52.378;4.648;2022-11-12T07:58:50;8.30;;;7.20;;
48941;SDS011;35340;52.378;4.648;2022-11-12T08:04:09;7.75;;;6.93;;
48941;SDS011;35340;52.378;4.648;2022-11-12T08:10:22;8.77;;;7.07;;
48941;SDS011;35340;52.378;4.648;2022-11-12T08:40:14;16.73;;;10.85;;
48941;SDS011;35340;52.378;4.648;2022-11-12T08:43:10;22.17;;;12.13;;
48941;SDS011;35340;52.378;4.648;2022-11-12T08:48:59;26.52;;;12.25;;
48941;SDS011;35340;52.378;4.648;2022-11-12T08:51:33;20.35;;;11.85;;
48941;SDS011;35340;52.378;4.648;2022-11-12T08:54:17;21.83;;;11.32;;
48941;SDS011;35340;52.378;4.648;2022-11-12T08:56:43;23.40;;;12.02;;
48941;SDS011;35340;52.378;4.648;2022-11-12T08:59:10;20.13;;;11.80;;
48941;SDS011;35340;52.378;4.648;2022-11-12T09:01:38;21.23;;;11.10;;
48941;SDS011;35340;52.378;4.648;2022-11-12T09:04:11;18.33;;;10.98;;
48941;SDS011;35340;52.378;4.648;2022-11-12T09:06:37;33.38;;;16.08;;
48941;SDS011;35340;52.378;4.648;2022-11-12T09:09:02;48.90;;;16.70;;
48941;SDS011;35340;52.378;4.648;2022-11-12T09:11:28;47.65;;;17.30;;
48941;SDS011;35340;52.378;4.648;2022-11-12T09:13:53;48.42;;;16.67;;
48941;SDS011;35340;52.378;4.648;2022-11-12T09:16:19;36.13;;;15.05;;
48941;SDS011;35340;52.378;4.648;2022-11-12T09:18:46;37.53;;;14.88;;
48941;SDS011;35340;52.378;4.648;2022-11-12T09:21:11;27.98;;;13.80;;
48941;SDS011;35340;52.378;4.648;2022-11-12T09:23:37;29.08;;;13.70;;
48941;SDS011;35340;52.378;4.648;2022-11-12T09:26:10;27.70;;;13.73;;
48941;SDS011;35340;52.378;4.648;2022-11-12T09:28:39;30.63;;;13.13;;
48941;SDS011;35340;52.378;4.648;2022-11-12T09:31:05;22.40;;;12.70;;
48941;SDS011;35340;52.378;4.648;2022-11-12T09:33:32;26.45;;;12.18;;
48941;SDS011;35340;52.378;4.648;2022-11-12T09:35:59;22.25;;;12.25;;
48941;SDS011;35340;52.378;4.648;2022-11-12T09:38:26;28.73;;;12.30;;
48941;SDS011;35340;52.378;4.648;2022-11-12T09:43:45;21.98;;;11.18;;
48941;SDS011;35340;52.378;4.648;2022-11-12T09:46:25;21.42;;;11.63;;
48941;SDS011;35340;52.378;4.648;2022-11-12T09:49:40;24.15;;;11.00;;
48941;SDS011;35340;52.378;4.648;2022-11-12T09:52:02;17.50;;;11.43;;
48941;SDS011;35340;52.378;4.648;2022-11-12T09:57:10;21.52;;;11.50;;
48941;SDS011;35340;52.378;4.648;2022-11-12T09:59:43;16.30;;;10.40;;
48941;SDS011;35340;52.378;4.648;2022-11-12T10:14:41;16.17;;;10.25;;
48941;SDS011;35340;52.378;4.648;2022-11-12T10:24:07;15.10;;;9.65;;
48941;SDS011;35340;52.378;4.648;2022-11-12T10:26:36;15.45;;;9.45;;
48941;SDS011;35340;52.378;4.648;2022-11-12T10:31:54;16.30;;;9.48;;
48941;SDS011;35340;52.378;4.648;2022-11-12T10:34:29;17.73;;;9.05;;
48941;SDS011;35340;52.378;4.648;2022-11-12T10:37:09;13.18;;;8.30;;
48941;SDS011;35340;52.378;4.648;2022-11-12T10:39:50;13.10;;;8.98;;
48941;SDS011;35340;52.378;4.648;2022-11-12T10:42:20;14.95;;;9.52;;
48941;SDS011;35340;52.378;4.648;2022-11-12T10:44:46;13.73;;;8.93;;
48941;SDS011;35340;52.378;4.648;2022-11-12T10:47:24;13.88;;;9.63;;
48941;SDS011;35340;52.378;4.648;2022-11-12T10:52:34;13.98;;;8.50;;
48941;SDS011;35340;52.378;4.648;2022-11-12T11:00:37;14.10;;;8.57;;
48941;SDS011;35340;52.378;4.648;2022-11-12T11:03:20;14.27;;;8.55;;
48941;SDS011;35340;52.378;4.648;2022-11-12T11:08:53;15.02;;;8.27;;
48941;SDS011;35340;52.378;4.648;2022-11-12T11:11:47;10.88;;;7.32;;
48941;SDS011;35340;52.378;4.648;2022-11-12T11:16:52;11.73;;;8.02;;
48941;SDS011;35340;52.378;4.648;2022-11-12T11:19:41;11.32;;;7.82;;
48941;SDS011;35340;52.378;4.648;2022-11-12T11:22:14;11.35;;;7.75;;
48941;SDS011;35340;52.378;4.648;2022-11-12T11:30:32;9.80;;;7.05;;
48941;SDS011;35340;52.378;4.648;2022-11-12T11:41:38;8.23;;;6.38;;
48941;SDS011;35340;52.378;4.648;2022-11-12T11:53:11;10.88;;;7.20;;
48941;SDS011;35340;52.378;4.648;2022-11-12T11:55:56;9.30;;;6.32;;
48941;SDS011;35340;52.378;4.648;2022-11-12T12:15:27;8.77;;;6.00;;
48941;SDS011;35340;52.378;4.648;2022-11-12T12:18:12;7.25;;;5.22;;
48941;SDS011;35340;52.378;4.648;2022-11-12T12:21:17;9.45;;;5.70;;
48941;SDS011;35340;52.378;4.648;2022-11-12T12:26:41;6.30;;;5.43;;
48941;SDS011;35340;52.378;4.648;2022-11-12T12:29:16;6.85;;;5.20;;
48941;SDS011;35340;52.378;4.648;2022-11-12T12:31:48;8.00;;;5.28;;
48941;SDS011;35340;52.378;4.648;2022-11-12T12:34:25;7.38;;;5.90;;
48941;SDS011;35340;52.378;4.648;2022-11-12T12:36:58;6.30;;;4.80;;
48941;SDS011;35340;52.378;4.648;2022-11-12T12:39:41;6.72;;;5.55;;
48941;SDS011;35340;52.378;4.648;2022-11-12T12:42:38;6.63;;;4.97;;
48941;SDS011;35340;52.378;4.648;2022-11-12T12:45:40;6.95;;;4.78;;
48941;SDS011;35340;52.378;4.648;2022-11-12T12:48:20;7.53;;;5.03;;
48941;SDS011;35340;52.378;4.648;2022-11-12T12:54:52;6.97;;;4.80;;
48941;SDS011;35340;52.378;4.648;2022-11-12T13:02:59;5.93;;;4.65;;
48941;SDS011;35340;52.378;4.648;2022-11-12T13:05:34;6.30;;;4.55;;
48941;SDS011;35340;52.378;4.648;2022-11-12T13:08:05;7.35;;;4.60;;
48941;SDS011;35340;52.378;4.648;2022-11-12T13:10:49;6.85;;;4.43;;
48941;SDS011;35340;52.378;4.648;2022-11-12T13:16:04;6.18;;;3.90;;
48941;SDS011;35340;52.378;4.648;2022-11-12T13:26:45;5.55;;;4.25;;
48941;SDS011;35340;52.378;4.648;2022-11-12T13:32:28;5.90;;;4.30;;
48941;SDS011;35340;52.378;4.648;2022-11-12T13:35:23;5.72;;;4.07;;
48941;SDS011;35340;52.378;4.648;2022-11-12T13:43:39;6.53;;;3.88;;
48941;SDS011;35340;52.378;4.648;2022-11-12T13:46:28;5.82;;;3.78;;
48941;SDS011;35340;52.378;4.648;2022-11-12T13:51:43;5.28;;;3.72;;
48941;SDS011;35340;52.378;4.648;2022-11-12T13:54:29;4.83;;;3.50;;
48941;SDS011;35340;52.378;4.648;2022-11-12T14:00:08;5.75;;;3.80;;
48941;SDS011;35340;52.378;4.648;2022-11-12T14:05:45;5.05;;;3.63;;
48941;SDS011;35340;52.378;4.648;2022-11-12T14:11:47;4.53;;;3.42;;
48941;SDS011;35340;52.378;4.648;2022-11-12T14:20:41;4.55;;;3.40;;
48941;SDS011;35340;52.378;4.648;2022-11-12T14:26:02;4.30;;;3.30;;
48941;SDS011;35340;52.378;4.648;2022-11-12T14:28:34;4.30;;;3.22;;
48941;SDS011;35340;52.378;4.648;2022-11-12T14:31:11;4.88;;;3.53;;
48941;SDS011;35340;52.378;4.648;2022-11-12T14:33:44;4.72;;;3.33;;
48941;SDS011;35340;52.378;4.648;2022-11-12T14:36:12;4.03;;;3.20;;
48941;SDS011;35340;52.378;4.648;2022-11-12T14:38:50;4.35;;;3.08;;
48941;SDS011;35340;52.378;4.648;2022-11-12T14:41:23;4.70;;;3.58;;
48941;SDS011;35340;52.378;4.648;2022-11-12T14:44:17;3.92;;;3.03;;
48941;SDS011;35340;52.378;4.648;2022-11-12T14:47:10;4.20;;;3.03;;
48941;SDS011;35340;52.378;4.648;2022-11-12T14:49:50;4.53;;;2.97;;
48941;SDS011;35340;52.378;4.648;2022-11-12T14:52:20;3.53;;;2.90;;
48941;SDS011;35340;52.378;4.648;2022-11-12T15:00:47;3.95;;;3.00;;
48941;SDS011;35340;52.378;4.648;2022-11-12T15:06:55;3.72;;;3.05;;
48941;SDS011;35340;52.378;4.648;2022-11-12T15:09:34;3.80;;;3.00;;
48941;SDS011;35340;52.378;4.648;2022-11-12T15:12:06;3.88;;;3.00;;
48941;SDS011;35340;52.378;4.648;2022-11-12T15:14:44;3.85;;;3.00;;
48941;SDS011;35340;52.378;4.648;2022-11-12T15:17:27;3.42;;;2.70;;
48941;SDS011;35340;52.378;4.648;2022-11-12T15:20:12;4.75;;;3.00;;
48941;SDS011;35340;52.378;4.648;2022-11-12T15:25:57;4.03;;;2.90;;
48941;SDS011;35340;52.378;4.648;2022-11-12T15:28:29;5.60;;;3.33;;
48941;SDS011;35340;52.378;4.648;2022-11-12T15:31:04;3.80;;;2.70;;
48941;SDS011;35340;52.378;4.648;2022-11-12T15:36:35;4.82;;;2.75;;
48941;SDS011;35340;52.378;4.648;2022-11-12T15:42:41;4.25;;;2.95;;
48941;SDS011;35340;52.378;4.648;2022-11-12T15:47:52;3.70;;;2.88;;
48941;SDS011;35340;52.378;4.648;2022-11-12T15:53:34;3.30;;;2.63;;
48941;SDS011;35340;52.378;4.648;2022-11-12T15:58:59;3.22;;;2.58;;
48941;SDS011;35340;52.378;4.648;2022-11-12T16:04:33;4.35;;;2.85;;
48941;SDS011;35340;52.378;4.648;2022-11-12T16:07:07;3.25;;;2.80;;
48941;SDS011;35340;52.378;4.648;2022-11-12T16:09:33;3.95;;;2.80;;
48941;SDS011;35340;52.378;4.648;2022-11-12T16:11:58;3.03;;;2.45;;
48941;SDS011;35340;52.378;4.648;2022-11-12T16:14:26;4.32;;;2.90;;
48941;SDS011;35340;52.378;4.648;2022-11-12T16:17:02;4.13;;;2.83;;
48941;SDS011;35340;52.378;4.648;2022-11-12T16:19:30;3.63;;;2.90;;
48941;SDS011;35340;52.378;4.648;2022-11-12T16:22:02;4.30;;;2.75;;
48941;SDS011;35340;52.378;4.648;2022-11-12T16:24:29;3.70;;;2.35;;
48941;SDS011;35340;52.378;4.648;2022-11-12T16:26:55;3.65;;;2.53;;
48941;SDS011;35340;52.378;4.648;2022-11-12T16:29:25;2.90;;;2.60;;
48941;SDS011;35340;52.378;4.648;2022-11-12T16:31:53;3.17;;;2.65;;
48941;SDS011;35340;52.378;4.648;2022-11-12T16:34:21;3.47;;;2.40;;
48941;SDS011;35340;52.378;4.648;2022-11-12T16:40:16;3.42;;;2.80;;
48941;SDS011;35340;52.378;4.648;2022-11-12T16:42:45;3.65;;;2.60;;
48941;SDS011;35340;52.378;4.648;2022-11-12T16:45:16;3.83;;;2.78;;
48941;SDS011;35340;52.378;4.648;2022-11-12T16:47:54;4.53;;;2.90;;
48941;SDS011;35340;52.378;4.648;2022-11-12T16:50:50;6.28;;;3.10;;
48941;SDS011;35340;52.378;4.648;2022-11-12T16:56:13;3.83;;;2.80;;
48941;SDS011;35340;52.378;4.648;2022-11-12T16:58:47;4.22;;;2.90;;
48941;SDS011;35340;52.378;4.648;2022-11-12T17:01:23;3.33;;;2.53;;
48941;SDS011;35340;52.378;4.648;2022-11-12T17:03:55;4.32;;;2.88;;
48941;SDS011;35340;52.378;4.648;2022-11-12T17:06:31;4.55;;;2.60;;
48941;SDS011;35340;52.378;4.648;2022-11-12T17:08:59;4.05;;;2.95;;
48941;SDS011;35340;52.378;4.648;2022-11-12T17:11:34;4.30;;;2.70;;
48941;SDS011;35340;52.378;4.648;2022-11-12T17:14:00;4.88;;;2.72;;
48941;SDS011;35340;52.378;4.648;2022-11-12T17:16:28;4.13;;;2.75;;
48941;SDS011;35340;52.378;4.648;2022-11-12T17:18:55;3.63;;;2.47;;
48941;SDS011;35340;52.378;4.648;2022-11-12T17:21:23;3.78;;;2.80;;
48941;SDS011;35340;52.378;4.648;2022-11-12T17:23:58;3.53;;;2.55;;
48941;SDS011;35340;52.378;4.648;2022-11-12T17:26:29;4.10;;;2.97;;
48941;SDS011;35340;52.378;4.648;2022-11-12T17:28:55;3.60;;;2.72;;
48941;SDS011;35340;52.378;4.648;2022-11-12T17:31:24;3.80;;;2.85;;
48941;SDS011;35340;52.378;4.648;2022-11-12T17:33:52;3.72;;;2.60;;
48941;SDS011;35340;52.378;4.648;2022-11-12T17:36:21;3.55;;;2.70;;
48941;SDS011;35340;52.378;4.648;2022-11-12T17:38:53;3.80;;;2.70;;
48941;SDS011;35340;52.378;4.648;2022-11-12T17:41:21;4.28;;;2.85;;
48941;SDS011;35340;52.378;4.648;2022-11-12T17:43:53;4.05;;;3.13;;
48941;SDS011;35340;52.378;4.648;2022-11-12T17:46:20;3.92;;;2.92;;
48941;SDS011;35340;52.378;4.648;2022-11-12T17:48:45;3.47;;;2.72;;
48941;SDS011;35340;52.378;4.648;2022-11-12T17:51:15;3.60;;;2.90;;
48941;SDS011;35340;52.378;4.648;2022-11-12T17:53:42;4.40;;;2.80;;
48941;SDS011;35340;52.378;4.648;2022-11-12T17:56:09;4.60;;;2.97;;
48941;SDS011;35340;52.378;4.648;2022-11-12T17:58:37;3.70;;;3.08;;
48941;SDS011;35340;52.378;4.648;2022-11-12T18:01:05;4.57;;;3.10;;
48941;SDS011;35340;52.378;4.648;2022-11-12T18:03:50;4.18;;;3.08;;
48941;SDS011;35340;52.378;4.648;2022-11-12T18:06:19;4.45;;;2.78;;
48941;SDS011;35340;52.378;4.648;2022-11-12T18:08:53;3.67;;;2.78;;
48941;SDS011;35340;52.378;4.648;2022-11-12T18:11:22;3.83;;;2.83;;
48941;SDS011;35340;52.378;4.648;2022-11-12T18:13:50;3.80;;;2.80;;
48941;SDS011;35340;52.378;4.648;2022-11-12T18:16:18;3.97;;;2.95;;
48941;SDS011;35340;52.378;4.648;2022-11-12T18:18:49;3.40;;;2.80;;
48941;SDS011;35340;52.378;4.648;2022-11-12T18:21:20;4.03;;;3.13;;
48941;SDS011;35340;52.378;4.648;2022-11-12T21:20:03;5.15;;;2.97;;
48941;SDS011;35340;52.378;4.648;2022-11-12T21:23:16;4.75;;;3.33;;
48941;SDS011;35340;52.378;4.648;2022-11-12T21:26:12;4.35;;;3.17;;
48941;SDS011;35340;52.378;4.648;2022-11-12T21:32:01;4.85;;;3.53;;
48941;SDS011;35340;52.378;4.648;2022-11-12T21:37:58;4.90;;;3.40;;
48941;SDS011;35340;52.378;4.648;2022-11-12T21:40:27;4.20;;;3.33;;
48941;SDS011;35340;52.378;4.648;2022-11-12T21:43:26;4.15;;;3.30;;
48941;SDS011;35340;52.378;4.648;2022-11-12T21:50:06;5.32;;;3.85;;
48941;SDS011;35340;52.378;4.648;2022-11-12T22:02:14;5.18;;;3.47;;
48941;SDS011;35340;52.378;4.648;2022-11-12T22:08:36;4.72;;;3.72;;
48941;SDS011;35340;52.378;4.648;2022-11-12T22:22:23;5.10;;;3.65;;
48941;SDS011;35340;52.378;4.648;2022-11-12T22:24:57;4.78;;;3.67;;
48941;SDS011;35340;52.378;4.648;2022-11-12T22:27:46;4.80;;;3.50;;
48941;SDS011;35340;52.378;4.648;2022-11-12T22:30:24;4.93;;;3.85;;
48941;SDS011;35340;52.378;4.648;2022-11-12T22:33:12;5.55;;;3.72;;
48941;SDS011;35340;52.378;4.648;2022-11-12T22:35:48;5.40;;;3.85;;
48941;SDS011;35340;52.378;4.648;2022-11-12T22:38:49;4.40;;;3.50;;
48941;SDS011;35340;52.378;4.648;2022-11-12T22:45:04;4.93;;;3.83;;
48941;SDS011;35340;52.378;4.648;2022-11-12T22:50:28;4.90;;;3.50;;
48941;SDS011;35340;52.378;4.648;2022-11-12T23:02:27;4.78;;;3.75;;
48941;SDS011;35340;52.378;4.648;2022-11-12T23:05:10;4.93;;;3.47;;
48941;SDS011;35340;52.378;4.648;2022-11-12T23:08:07;4.40;;;3.45;;
48941;SDS011;35340;52.378;4.648;2022-11-12T23:54:49;4.53;;;3.35;;
48941;SDS011;35340;52.378;4.648;2022-11-12T23:58:02;4.07;;;3.47;;
